Time;durP1;ratioP1;P1;durP2;ratioP2;P2;SDS_P1;SDS_P2;PMS_P1;PMS_P2;Temp;Humidity;BMP_temperature;BMP_pressure;BME280_temperature;BME280_humidity;BME280_pressure;Samples;Min_cycle;Max_cycle;Signal;HPM_P1;HPM_P2
2022/06/07 00:01:14;;;;;;;;;;;;;;;;;;5010665;28;1309;-73
2022/06/07 00:03:41;;;;;;;;;;;;;;;;;;5013693;28;729;-72
2022/06/07 00:06:08;;;;;;;;;;;;;;;;;;5017099;28;858;-72
2022/06/07 00:08:35;;;;;;;;;;;;;;;;;;5017402;28;1049;-72
2022/06/07 00:11:01;;;;;;;;;;;;;;;;;;5016976;28;1988;-72
2022/06/07 00:13:27;;;;;;;;;;;;;;;;;;4999599;28;1134;-72
2022/06/07 00:15:53;;;;;;;;;;;;;;;;;;5017326;28;1092;-73
2022/06/07 00:18:19;;;;;;;;;;;;;;;;;;5017034;28;1009;-73
2022/06/07 00:20:46;;;;;;;;;;;;;;;;;;5017277;28;796;-73
2022/06/07 00:23:15;;;;;;;;;;;;;;;;;;5017039;28;1371;-72
2022/06/07 00:25:41;;;;;;;;;;;;;;;;;;4999668;28;1460;-72
2022/06/07 00:28:07;;;;;;;;;;;;;;;;;;5016772;28;1068;-73
2022/06/07 00:30:34;;;;;;;;;;;;;;;;;;4999505;28;1974;-72
2022/06/07 00:33:00;;;;;;;;;;;;;;;;;;4999528;28;1503;-73
2022/06/07 00:35:26;;;;;;;;;;;;;;;;;;4999630;28;1319;-72
2022/06/07 00:37:52;;;;;;;;;;;;;;;;;;4999437;28;1264;-73
2022/06/07 00:40:20;;;;;;;;;;;;;;;;;;4999509;28;1686;-73
2022/06/07 00:42:46;;;;;;;;;;;;;;;;;;5017173;28;1392;-73
2022/06/07 00:45:14;;;;;;;;;;;;;;;;;;5017068;28;1179;-73
2022/06/07 00:47:40;;;;;;;;;;;;;;;;;;4999011;28;1663;-73
2022/06/07 00:50:07;;;;;;;;;;;;;;;;;;5016750;28;1966;-72
2022/06/07 00:52:34;;;;;;;;;;;;;;;;;;4999146;28;1313;-73
2022/06/07 00:55:00;;;;;;;;;;;;;;;;;;4999155;28;1576;-73
2022/06/07 00:57:36;;;;;;;;;;;;;;;;;;4998902;28;1414;-73
2022/06/07 01:00:08;;;;;;;;;;;;;;;;;;4999345;28;1429;-74
2022/06/07 01:02:34;;;;;;;;;;;;;;;;;;5016655;28;1353;-74
2022/06/07 01:05:01;;;;;;;;;;;;;;;;;;4983977;28;2126;-74
2022/06/07 01:13:00;;;;;;;;;;;;;;;;;;4979448;28;1416;-73
2022/06/07 01:15:29;;;;;;;;;;;;;;;;;;4976743;28;1437;-74
2022/06/07 01:17:58;;;;;;;;;;;;;;;;;;4976253;28;1340;-74
2022/06/07 01:20:25;;;;;;;;;;;;;;;;;;4976318;28;1330;-73
2022/06/07 01:22:53;;;;;;;;;;;;;;;;;;4993828;28;1393;-74
2022/06/07 01:25:19;;;;;;;;;;;;;;;;;;4976205;28;1190;-74
2022/06/07 01:27:45;;;;;;;;;;;;;;;;;;4976095;28;1194;-74
2022/06/07 01:30:12;;;;;;;;;;;;;;;;;;4976235;28;1918;-74
2022/06/07 01:32:38;;;;;;;;;;;;;;;;;;4976295;28;1376;-74
2022/06/07 01:35:05;;;;;;;;;;;;;;;;;;4976259;28;1362;-73
2022/06/07 01:37:31;;;;;;;;;;;;;;;;;;4976076;28;1180;-73
2022/06/07 01:42:43;;;;;;;;;;;;;;;;;;4976296;28;1489;-73
2022/06/07 01:45:09;;;;;;;;;;;;;;;;;;4976210;28;1202;-73
2022/06/07 01:47:38;;;;;;;;;;;;;;;;;;4976019;28;1025;-74
2022/06/07 01:50:06;;;;;;;;;;;;;;;;;;4975794;28;1966;-73
2022/06/07 01:52:33;;;;;;;;;;;;;;;;;;4993268;28;1336;-73
2022/06/07 01:55:06;;;;;;;;;;;;;;;;;;4975828;28;1281;-73
2022/06/07 01:57:39;;;;;;;;;;;;;;;;;;4975620;28;1464;-74
2022/06/07 02:00:10;;;;;;;;;;;;;;;;;;4993202;28;862;-73
2022/06/07 02:02:39;;;;;;;;;;;;;;;;;;4993436;28;1394;-73
2022/06/07 02:05:06;;;;;;;;;;;;;;;;;;4975654;28;1686;-73
2022/06/07 02:07:34;;;;;;;;;;;;;;;;;;4975365;28;1597;-73
2022/06/07 02:10:06;;;;;;;;;;;;;;;;;;4975545;28;1910;-73
2022/06/07 02:12:34;;;;;;;;;;;;;;;;;;4976902;28;2082;-73
2022/06/07 02:15:00;;;;;;;;;;;;;;;;;;4997676;28;1550;-73
2022/06/07 02:17:27;;;;;;;;;;;;;;;;;;5006475;28;1211;-73
2022/06/07 02:20:25;;;;;;;;;;;;;;;;;;4998550;28;1207;-74
2022/06/07 02:22:52;;;;;;;;;;;;;;;;;;5014351;28;1274;-74
2022/06/07 02:25:20;;;;;;;;;;;;;;;;;;5032163;28;1056;-74
2022/06/07 02:27:46;;;;;;;;;;;;;;;;;;5031721;28;842;-74
2022/06/07 02:30:12;;;;;;;;;;;;;;;;;;5014200;28;1974;-72
2022/06/07 02:32:39;;;;;;;;;;;;;;;;;;5014111;28;1396;-73
2022/06/07 02:35:05;;;;;;;;;;;;;;;;;;5032163;28;846;-74
2022/06/07 02:37:31;;;;;;;;;;;;;;;;;;5031653;28;1032;-74
2022/06/07 02:39:58;;;;;;;;;;;;;;;;;;5014195;28;1267;-73
2022/06/07 02:42:26;;;;;;;;;;;;;;;;;;5031536;28;1322;-73
2022/06/07 02:44:53;;;;;;;;;;;;;;;;;;5014009;28;863;-74
2022/06/07 02:47:19;;;;;;;;;;;;;;;;;;5031517;28;846;-72
2022/06/07 02:49:52;;;;;;;;;;;;;;;;;;5013999;28;1962;-74
2022/06/07 02:52:18;;;;;;;;;;;;;;;;;;5013696;28;1397;-73
2022/06/07 02:54:51;;;;;;;;;;;;;;;;;;5013813;28;1496;-73
2022/06/07 02:57:17;;;;;;;;;;;;;;;;;;5013578;28;1423;-73
2022/06/07 02:59:48;;;;;;;;;;;;;;;;;;5014194;28;1401;-74
2022/06/07 03:02:15;;;;;;;;;;;;;;;;;;5013374;28;1415;-73
2022/06/07 03:04:41;;;;;;;;;;;;;;;;;;5013912;28;1307;-72
2022/06/07 03:07:09;;;;;;;;;;;;;;;;;;4994058;28;1558;-73
2022/06/07 03:09:35;;;;;;;;;;;;;;;;;;4992034;28;808;-74
2022/06/07 03:12:03;;;;;;;;;;;;;;;;;;4974306;28;1971;-73
2022/06/07 03:14:30;;;;;;;;;;;;;;;;;;4974634;28;1627;-73
2022/06/07 03:16:59;;;;;;;;;;;;;;;;;;4974194;28;1585;-74
2022/06/07 03:19:29;;;;;;;;;;;;;;;;;;4974408;28;1513;-73
2022/06/07 03:21:56;;;;;;;;;;;;;;;;;;4974240;28;1381;-74
2022/06/07 03:24:22;;;;;;;;;;;;;;;;;;4991545;28;1097;-74
2022/06/07 03:26:52;;;;;;;;;;;;;;;;;;4974218;28;1369;-73
2022/06/07 03:29:18;;;;;;;;;;;;;;;;;;4974310;28;1185;-73
2022/06/07 03:31:45;;;;;;;;;;;;;;;;;;4974072;28;1926;-73
2022/06/07 03:34:14;;;;;;;;;;;;;;;;;;4973979;28;1546;-74
2022/06/07 03:36:41;;;;;;;;;;;;;;;;;;4991460;28;784;-74
2022/06/07 03:39:09;;;;;;;;;;;;;;;;;;4973533;28;1272;-73
2022/06/07 03:41:40;;;;;;;;;;;;;;;;;;4974032;28;1605;-73
2022/06/07 03:44:15;;;;;;;;;;;;;;;;;;4974193;28;1358;-74
2022/06/07 03:46:47;;;;;;;;;;;;;;;;;;4973751;28;1169;-73
2022/06/07 03:49:18;;;;;;;;;;;;;;;;;;4974099;28;1259;-73
2022/06/07 03:51:47;;;;;;;;;;;;;;;;;;4991365;28;1914;-73
2022/06/07 03:54:15;;;;;;;;;;;;;;;;;;4973722;28;1457;-73
2022/06/07 03:56:44;;;;;;;;;;;;;;;;;;4973690;28;1339;-74
2022/06/07 03:59:10;;;;;;;;;;;;;;;;;;4973869;28;1261;-73
2022/06/07 04:01:37;;;;;;;;;;;;;;;;;;4973726;28;1303;-75
2022/06/07 04:04:04;;;;;;;;;;;;;;;;;;5036554;22;4030;-71
2022/06/07 04:06:32;;;;;;;;;;;;;;;;;;5049626;28;1105;-72
2022/06/07 04:09:06;;;;;;;;;;;;;;;;;;5049033;28;1503;-70
2022/06/07 04:11:37;;;;;;;;;;;;;;;;;;5049198;28;1915;-72
2022/06/07 04:14:04;;;;;;;;;;;;;;;;;;5061030;28;1529;-72
2022/06/07 04:16:30;;;;;;;;;;;;;;;;;;5068789;28;1014;-72
2022/06/07 04:19:02;;;;;;;;;;;;;;;;;;5069051;28;1296;-72
2022/06/07 04:21:28;;;;;;;;;;;;;;;;;;5069351;28;1412;-71
2022/06/07 04:24:06;;;;;;;;;;;;;;;;;;5068954;28;1417;-71
2022/06/07 04:26:35;;;;;;;;;;;;;;;;;;5068818;28;1324;-72
2022/06/07 04:29:01;;;;;;;;;;;;;;;;;;5069252;28;1376;-72
2022/06/07 04:31:28;;;;;;;;;;;;;;;;;;5070257;28;1914;-72
2022/06/07 04:34:02;;;;;;;;;;;;;;;;;;5068807;28;1484;-71
2022/06/07 04:36:28;;;;;;;;;;;;;;;;;;5068641;28;1256;-72
2022/06/07 04:38:57;;;;;;;;;;;;;;;;;;5068882;28;1218;-72
2022/06/07 04:41:30;;;;;;;;;;;;;;;;;;5068785;28;1275;-72
2022/06/07 04:44:02;;;;;;;;;;;;;;;;;;5067955;28;1322;-70
2022/06/07 04:46:28;;;;;;;;;;;;;;;;;;5068414;28;1079;-72
2022/06/07 04:48:57;;;;;;;;;;;;;;;;;;5068799;28;1242;-72
2022/06/07 04:51:28;;;;;;;;;;;;;;;;;;5071602;28;1907;-71
2022/06/07 04:54:07;;;;;;;;;;;;;;;;;;5072304;28;1414;-72
2022/06/07 04:56:41;;;;;;;;;;;;;;;;;;5072637;28;1330;-72
2022/06/07 04:59:07;;;;;;;;;;;;;;;;;;5072437;28;1405;-72
2022/06/07 05:01:37;;;;;;;;;;;;;;;;;;5072467;28;1524;-72
2022/06/07 05:04:09;;;;;;;;;;;;;;;;;;5072040;28;1340;-72
2022/06/07 05:06:38;;;;;;;;;;;;;;;;;;5071965;28;1041;-72
2022/06/07 05:09:17;;;;;;;;;;;;;;;;;;5072202;28;1458;-72
2022/06/07 05:11:47;;;;;;;;;;;;;;;;;;5072153;28;1914;-72
2022/06/07 05:14:14;;;;;;;;;;;;;;;;;;5060446;28;1545;-72
2022/06/07 05:16:45;;;;;;;;;;;;;;;;;;5051859;28;1235;-72
2022/06/07 05:19:16;;;;;;;;;;;;;;;;;;5052138;28;1479;-72
2022/06/07 05:21:45;;;;;;;;;;;;;;;;;;5052201;28;1222;-72
2022/06/07 05:24:12;;;;;;;;;;;;;;;;;;5052117;28;1406;-72
2022/06/07 05:26:40;;;;;;;;;;;;;;;;;;5051782;28;1201;-72
2022/06/07 05:29:10;;;;;;;;;;;;;;;;;;5051874;28;1422;-72
2022/06/07 05:31:37;;;;;;;;;;;;;;;;;;5053066;28;1977;-71
2022/06/07 05:34:03;;;;;;;;;;;;;;;;;;5051923;28;1332;-72
2022/06/07 05:36:31;;;;;;;;;;;;;;;;;;5051639;28;1006;-72
2022/06/07 05:39:04;;;;;;;;;;;;;;;;;;5051645;28;1312;-72
2022/06/07 05:41:32;;;;;;;;;;;;;;;;;;5051681;28;1433;-72
2022/06/07 05:44:06;;;;;;;;;;;;;;;;;;5051639;28;1381;-72
2022/06/07 05:46:38;;;;;;;;;;;;;;;;;;5051443;28;1343;-72
2022/06/07 05:49:13;;;;;;;;;;;;;;;;;;5051551;28;1333;-72
2022/06/07 05:52:03;;;;;;;;;;;;;;;;;;5051282;28;1902;-72
2022/06/07 05:54:30;;;;;;;;;;;;;;;;;;5051392;28;1328;-72
2022/06/07 05:56:57;;;;;;;;;;;;;;;;;;5049810;28;1504;-71
2022/06/07 05:59:23;;;;;;;;;;;;;;;;;;5051549;28;1145;-72
2022/06/07 06:01:52;;;;;;;;;;;;;;;;;;5050773;28;1498;-71
2022/06/07 06:04:21;;;;;;;;;;;;;;;;;;5051033;28;1327;-72
2022/06/07 06:06:49;;;;;;;;;;;;;;;;;;5051029;28;1340;-72
2022/06/07 06:12:00;;;;;;;;;;;;;;;;;;5052139;28;1914;-73
2022/06/07 06:14:36;;;;;;;;;;;;;;;;;;5051298;28;1590;-72
2022/06/07 06:17:11;;;;;;;;;;;;;;;;;;5050655;28;1307;-72
2022/06/07 06:19:42;;;;;;;;;;;;;;;;;;5051163;28;1293;-72
2022/06/07 06:22:08;;;;;;;;;;;;;;;;;;5050989;28;1331;-73
2022/06/07 06:24:40;;;;;;;;;;;;;;;;;;5051019;28;1384;-73
2022/06/07 06:27:08;;;;;;;;;;;;;;;;;;5050603;28;1194;-72
2022/06/07 06:29:40;;;;;;;;;;;;;;;;;;5050907;28;1374;-73
2022/06/07 06:32:06;;;;;;;;;;;;;;;;;;5050642;28;1914;-72
2022/06/07 06:34:35;;;;;;;;;;;;;;;;;;5050582;28;1365;-73
2022/06/07 06:37:06;;;;;;;;;;;;;;;;;;5050238;28;1332;-72
2022/06/07 06:39:35;;;;;;;;;;;;;;;;;;5050679;28;1807;-72
2022/06/07 06:42:01;;;;;;;;;;;;;;;;;;5050489;28;1299;-72
2022/06/07 06:44:49;;;;;;;;;;;;;;;;;;5050529;28;1851;-72
2022/06/07 06:47:17;;;;;;;;;;;;;;;;;;5050017;28;1425;-72
2022/06/07 06:49:45;;;;;;;;;;;;;;;;;;5050639;28;965;-72
2022/06/07 06:52:12;;;;;;;;;;;;;;;;;;5051407;28;1976;-73
2022/06/07 06:54:38;;;;;;;;;;;;;;;;;;5050216;28;1800;-73
2022/06/07 06:57:11;;;;;;;;;;;;;;;;;;5049962;28;1054;-72
2022/06/07 06:59:37;;;;;;;;;;;;;;;;;;5050233;28;1248;-73
2022/06/07 07:02:04;;;;;;;;;;;;;;;;;;5049969;28;1399;-72
2022/06/07 07:04:44;;;;;;;;;;;;;;;;;;5049908;28;1456;-73
2022/06/07 07:07:10;;;;;;;;;;;;;;;;;;5049671;28;1367;-71
2022/06/07 07:09:37;;;;;;;;;;;;;;;;;;5050179;28;1334;-72
2022/06/07 07:12:07;;;;;;;;;;;;;;;;;;5049598;28;1914;-73
2022/06/07 07:14:39;;;;;;;;;;;;;;;;;;5049168;28;1491;-71
2022/06/07 07:17:08;;;;;;;;;;;;;;;;;;5049728;28;1295;-72
2022/06/07 07:19:36;;;;;;;;;;;;;;;;;;5049902;28;1318;-72
2022/06/07 07:22:09;;;;;;;;;;;;;;;;;;5049731;28;1668;-72
2022/06/07 07:24:37;;;;;;;;;;;;;;;;;;5049850;28;1366;-72
2022/06/07 07:27:05;;;;;;;;;;;;;;;;;;5049568;28;1294;-71
2022/06/07 07:29:32;;;;;;;;;;;;;;;;;;5049834;28;1447;-73
2022/06/07 07:32:05;;;;;;;;;;;;;;;;;;5049481;28;1918;-73
2022/06/07 07:34:40;;;;;;;;;;;;;;;;;;5049538;28;1338;-73
2022/06/07 07:37:06;;;;;;;;;;;;;;;;;;5049113;28;1190;-72
2022/06/07 07:39:36;;;;;;;;;;;;;;;;;;5049648;28;1349;-73
2022/06/07 07:42:03;;;;;;;;;;;;;;;;;;5050717;28;763;-73
2022/06/07 07:44:37;;;;;;;;;;;;;;;;;;5049500;28;1392;-72
2022/06/07 07:47:03;;;;;;;;;;;;;;;;;;5049275;28;1271;-73
2022/06/07 07:49:35;;;;;;;;;;;;;;;;;;5049458;28;1591;-73
2022/06/07 07:52:04;;;;;;;;;;;;;;;;;;5049283;28;1918;-72
2022/06/07 07:54:32;;;;;;;;;;;;;;;;;;5048883;28;1479;-73
2022/06/07 07:57:04;;;;;;;;;;;;;;;;;;5049070;28;1680;-72
2022/06/07 07:59:32;;;;;;;;;;;;;;;;;;5049426;28;1452;-73
2022/06/07 08:02:02;;;;;;;;;;;;;;;;;;5049314;28;1391;-73
2022/06/07 08:04:29;;;;;;;;;;;;;;;;;;5050716;28;1364;-72
2022/06/07 08:06:57;;;;;;;;;;;;;;;;;;5049071;28;1194;-73
2022/06/07 08:09:26;;;;;;;;;;;;;;;;;;5050437;28;1072;-73
2022/06/07 08:11:52;;;;;;;;;;;;;;;;;;5050308;28;1914;-72
2022/06/07 08:14:23;;;;;;;;;;;;;;;;;;5048223;28;1927;-72
2022/06/07 08:16:49;;;;;;;;;;;;;;;;;;5050526;28;1399;-72
2022/06/07 08:19:18;;;;;;;;;;;;;;;;;;5061944;28;1196;-72
2022/06/07 08:21:44;;;;;;;;;;;;;;;;;;5070606;28;1115;-72
2022/06/07 08:24:10;;;;;;;;;;;;;;;;;;5070877;28;1384;-72
2022/06/07 08:26:37;;;;;;;;;;;;;;;;;;5074266;28;889;-72
2022/06/07 08:29:03;;;;;;;;;;;;;;;;;;5074498;28;849;-72
2022/06/07 08:31:31;;;;;;;;;;;;;;;;;;5074149;28;1910;-72
2022/06/07 08:39:26;;;;;;;;;;;;;;;;;;5072881;28;1009;-72
2022/06/07 08:41:53;;;;;;;;;;;;;;;;;;5074327;28;1027;-72
2022/06/07 08:44:20;;;;;;;;;;;;;;;;;;5073954;28;1289;-72
2022/06/07 08:46:48;;;;;;;;;;;;;;;;;;5073924;28;823;-72
2022/06/07 08:49:14;;;;;;;;;;;;;;;;;;5074037;28;1092;-72
2022/06/07 08:51:44;;;;;;;;;;;;;;;;;;5073903;28;1973;-72
2022/06/07 08:54:13;;;;;;;;;;;;;;;;;;5073809;28;1305;-71
2022/06/07 08:56:39;;;;;;;;;;;;;;;;;;5073583;28;1087;-71
2022/06/07 08:59:10;;;;;;;;;;;;;;;;;;5072852;28;826;-72
2022/06/07 09:01:36;;;;;;;;;;;;;;;;;;5073820;28;1055;-72
2022/06/07 09:04:08;;;;;;;;;;;;;;;;;;5073414;28;1440;-72
2022/06/07 09:06:35;;;;;;;;;;;;;;;;;;5058583;28;1513;-72
2022/06/07 09:09:01;;;;;;;;;;;;;;;;;;5053804;28;865;-72
2022/06/07 09:14:18;;;;;;;;;;;;;;;;;;5053654;28;1362;-73
2022/06/07 09:16:45;;;;;;;;;;;;;;;;;;5051944;28;1309;-72
2022/06/07 09:19:15;;;;;;;;;;;;;;;;;;5053406;28;878;-74
2022/06/07 09:21:43;;;;;;;;;;;;;;;;;;5053822;28;1068;-72
2022/06/07 09:24:11;;;;;;;;;;;;;;;;;;5052758;28;1388;-72
2022/06/07 09:26:38;;;;;;;;;;;;;;;;;;5053668;28;945;-73
2022/06/07 09:29:06;;;;;;;;;;;;;;;;;;5053265;28;1119;-72
2022/06/07 09:31:32;;;;;;;;;;;;;;;;;;5053123;28;1072;-73
2022/06/07 09:33:59;;;;;;;;;;;;;;;;;;5053191;28;1918;-73
2022/06/07 09:36:28;;;;;;;;;;;;;;;;;;5051896;28;1539;-73
2022/06/07 09:38:55;;;;;;;;;;;;;;;;;;5053160;28;917;-73
2022/06/07 09:41:38;;;;;;;;;;;;;;;;;;5053045;28;1112;-73
2022/06/07 09:44:05;;;;;;;;;;;;;;;;;;5052962;28;1319;-72
2022/06/07 09:46:32;;;;;;;;;;;;;;;;;;5052911;28;1060;-72
2022/06/07 09:48:58;;;;;;;;;;;;;;;;;;5053016;28;1068;-73
2022/06/07 09:51:25;;;;;;;;;;;;;;;;;;5052992;28;1112;-72
2022/06/07 09:53:59;;;;;;;;;;;;;;;;;;5052707;28;1926;-73
2022/06/07 09:56:26;;;;;;;;;;;;;;;;;;5052489;28;846;-73
2022/06/07 09:58:56;;;;;;;;;;;;;;;;;;5052088;28;950;-73
2022/06/07 10:01:25;;;;;;;;;;;;;;;;;;5052237;28;881;-73
2022/06/07 10:03:51;;;;;;;;;;;;;;;;;;5052474;28;1424;-73
2022/06/07 10:06:19;;;;;;;;;;;;;;;;;;5052343;28;1086;-73
2022/06/07 10:08:47;;;;;;;;;;;;;;;;;;5052669;28;1008;-73
2022/06/07 10:11:15;;;;;;;;;;;;;;;;;;5052468;28;992;-73
2022/06/07 10:13:47;;;;;;;;;;;;;;;;;;5052305;28;1918;-73
2022/06/07 10:16:16;;;;;;;;;;;;;;;;;;5050696;28;910;-73
2022/06/07 10:18:47;;;;;;;;;;;;;;;;;;5051043;28;1112;-72
2022/06/07 10:21:16;;;;;;;;;;;;;;;;;;5052324;28;961;-72
2022/06/07 10:23:56;;;;;;;;;;;;;;;;;;5052042;28;1413;-72
2022/06/07 10:26:26;;;;;;;;;;;;;;;;;;5050496;28;1246;-72
2022/06/07 10:28:55;;;;;;;;;;;;;;;;;;5050900;28;1417;-73
2022/06/07 10:31:25;;;;;;;;;;;;;;;;;;5051988;28;806;-72
2022/06/07 10:33:52;;;;;;;;;;;;;;;;;;5051805;28;1969;-73
2022/06/07 10:36:33;;;;;;;;;;;;;;;;;;5051774;28;1064;-72
2022/06/07 10:39:07;;;;;;;;;;;;;;;;;;5051936;28;1115;-74
2022/06/07 10:41:37;;;;;;;;;;;;;;;;;;5051800;28;1044;-73
2022/06/07 10:44:06;;;;;;;;;;;;;;;;;;5051514;28;1402;-72
2022/06/07 10:46:32;;;;;;;;;;;;;;;;;;5051568;28;859;-73
2022/06/07 10:49:03;;;;;;;;;;;;;;;;;;5051785;28;1001;-73
2022/06/07 10:54:15;;;;;;;;;;;;;;;;;;5050169;28;1914;-73
2022/06/07 10:56:44;;;;;;;;;;;;;;;;;;5051332;28;716;-73
2022/06/07 10:59:13;;;;;;;;;;;;;;;;;;5051865;28;1405;-73
2022/06/07 11:01:40;;;;;;;;;;;;;;;;;;5051438;28;1127;-73
2022/06/07 11:04:08;;;;;;;;;;;;;;;;;;5050665;28;1431;-74
2022/06/07 11:09:23;;;;;;;;;;;;;;;;;;5050055;28;934;-73
2022/06/07 11:11:51;;;;;;;;;;;;;;;;;;5051976;28;1122;-73
2022/06/07 11:14:28;;;;;;;;;;;;;;;;;;5051517;28;1914;-73
2022/06/07 11:16:58;;;;;;;;;;;;;;;;;;5051743;28;795;-73
2022/06/07 11:19:24;;;;;;;;;;;;;;;;;;5050369;28;1352;-73
2022/06/07 11:21:53;;;;;;;;;;;;;;;;;;5051202;28;572;-72
2022/06/07 11:24:21;;;;;;;;;;;;;;;;;;5049641;28;1352;-72
2022/06/07 11:27:06;;;;;;;;;;;;;;;;;;5049689;28;1264;-72
2022/06/07 11:29:33;;;;;;;;;;;;;;;;;;5049742;28;1278;-72
2022/06/07 11:32:00;;;;;;;;;;;;;;;;;;5049511;28;1175;-72
2022/06/07 11:34:27;;;;;;;;;;;;;;;;;;5049603;28;1973;-72
2022/06/07 11:36:56;;;;;;;;;;;;;;;;;;5050622;28;1072;-73
2022/06/07 11:39:24;;;;;;;;;;;;;;;;;;5050794;28;949;-72
2022/06/07 11:41:52;;;;;;;;;;;;;;;;;;5049520;28;1045;-73
2022/06/07 11:44:36;;;;;;;;;;;;;;;;;;5050564;28;1326;-73
2022/06/07 11:47:18;;;;;;;;;;;;;;;;;;5050542;28;1064;-72
2022/06/07 11:49:55;;;;;;;;;;;;;;;;;;5050704;28;1060;-72
2022/06/07 11:52:23;;;;;;;;;;;;;;;;;;5049297;28;925;-72
2022/06/07 11:54:53;;;;;;;;;;;;;;;;;;5049280;28;1917;-73
2022/06/07 11:57:20;;;;;;;;;;;;;;;;;;5050083;28;1244;-72
2022/06/07 11:59:48;;;;;;;;;;;;;;;;;;5049244;28;740;-72
2022/06/07 12:02:23;;;;;;;;;;;;;;;;;;5050470;28;1129;-72
2022/06/07 12:05:07;;;;;;;;;;;;;;;;;;5050424;28;1329;-72
2022/06/07 12:07:34;;;;;;;;;;;;;;;;;;5050228;28;1250;-72
2022/06/07 12:10:02;;;;;;;;;;;;;;;;;;5050392;28;1063;-72
2022/06/07 12:12:31;;;;;;;;;;;;;;;;;;5050690;28;1047;-73
2022/06/07 12:15:04;;;;;;;;;;;;;;;;;;5049356;28;1914;-73
2022/06/07 12:17:30;;;;;;;;;;;;;;;;;;5050490;28;1075;-73
2022/06/07 12:19:57;;;;;;;;;;;;;;;;;;5050592;28;1515;-73
2022/06/07 12:22:24;;;;;;;;;;;;;;;;;;5050410;28;1072;-73
2022/06/07 12:24:53;;;;;;;;;;;;;;;;;;5050399;28;1385;-73
2022/06/07 12:27:21;;;;;;;;;;;;;;;;;;5049982;28;1108;-73
2022/06/07 12:29:47;;;;;;;;;;;;;;;;;;5049109;28;910;-74
2022/06/07 12:32:19;;;;;;;;;;;;;;;;;;5051810;28;1084;-73
2022/06/07 12:34:46;;;;;;;;;;;;;;;;;;5052944;28;1918;-74
2022/06/07 12:37:19;;;;;;;;;;;;;;;;;;5052111;28;940;-72
2022/06/07 12:39:48;;;;;;;;;;;;;;;;;;5051688;28;945;-72
2022/06/07 12:42:16;;;;;;;;;;;;;;;;;;5049712;28;1491;-72
2022/06/07 12:44:50;;;;;;;;;;;;;;;;;;5050097;28;1308;-72
2022/06/07 12:47:22;;;;;;;;;;;;;;;;;;5049964;28;1064;-72
2022/06/07 12:49:49;;;;;;;;;;;;;;;;;;5050306;28;953;-72
2022/06/07 12:52:16;;;;;;;;;;;;;;;;;;5050131;28;1198;-72
2022/06/07 12:54:47;;;;;;;;;;;;;;;;;;5050102;28;1985;-72
2022/06/07 12:57:15;;;;;;;;;;;;;;;;;;5049782;28;1060;-72
2022/06/07 12:59:42;;;;;;;;;;;;;;;;;;5050137;28;972;-72
2022/06/07 13:02:13;;;;;;;;;;;;;;;;;;5049924;28;1101;-72
2022/06/07 13:04:48;;;;;;;;;;;;;;;;;;5049978;28;1282;-74
2022/06/07 13:07:17;;;;;;;;;;;;;;;;;;5049548;28;1012;-74
2022/06/07 13:09:43;;;;;;;;;;;;;;;;;;5049710;28;1462;-73
2022/06/07 13:12:09;;;;;;;;;;;;;;;;;;5050258;28;1471;-74
2022/06/07 13:14:36;;;;;;;;;;;;;;;;;;5053671;28;1918;-72
2022/06/07 13:17:11;;;;;;;;;;;;;;;;;;5052709;28;1858;-71
2022/06/07 13:19:41;;;;;;;;;;;;;;;;;;5053737;28;1078;-72
2022/06/07 13:22:13;;;;;;;;;;;;;;;;;;5053582;28;1126;-72
2022/06/07 13:24:41;;;;;;;;;;;;;;;;;;5053373;28;1320;-71
2022/06/07 13:27:22;;;;;;;;;;;;;;;;;;5053135;28;1134;-71
2022/06/07 13:29:49;;;;;;;;;;;;;;;;;;5052129;28;1094;-72
2022/06/07 13:32:21;;;;;;;;;;;;;;;;;;5053238;28;894;-71
2022/06/07 13:34:50;;;;;;;;;;;;;;;;;;5053120;28;1998;-72
2022/06/07 13:37:19;;;;;;;;;;;;;;;;;;5052814;28;1106;-72
2022/06/07 13:39:57;;;;;;;;;;;;;;;;;;5051799;28;1354;-72
2022/06/07 13:42:25;;;;;;;;;;;;;;;;;;5052866;28;861;-72
2022/06/07 13:44:55;;;;;;;;;;;;;;;;;;5051641;28;1329;-72
2022/06/07 13:47:22;;;;;;;;;;;;;;;;;;5052900;28;1155;-72
2022/06/07 13:55:42;;;;;;;;;;;;;;;;;;5052948;28;981;-72
2022/06/07 13:58:08;;;;;;;;;;;;;;;;;;5052565;28;1051;-73
2022/06/07 14:00:34;;;;;;;;;;;;;;;;;;5052724;28;1115;-72
2022/06/07 14:03:04;;;;;;;;;;;;;;;;;;5052567;28;1436;-72
2022/06/07 14:05:31;;;;;;;;;;;;;;;;;;5052764;28;1064;-72
2022/06/07 14:07:59;;;;;;;;;;;;;;;;;;5052296;28;1439;-72
2022/06/07 14:10:26;;;;;;;;;;;;;;;;;;5052136;28;870;-72
2022/06/07 14:12:53;;;;;;;;;;;;;;;;;;5052311;28;1315;-72
2022/06/07 14:15:20;;;;;;;;;;;;;;;;;;5052405;28;2000;-74
2022/06/07 14:17:46;;;;;;;;;;;;;;;;;;5040936;28;1527;-74
2022/06/07 14:20:15;;;;;;;;;;;;;;;;;;5047865;28;1124;-74
2022/06/07 14:22:41;;;;;;;;;;;;;;;;;;5031717;28;1341;-73
2022/06/07 14:25:11;;;;;;;;;;;;;;;;;;5032134;28;1122;-72
2022/06/07 14:27:37;;;;;;;;;;;;;;;;;;5032110;28;941;-72
2022/06/07 14:30:04;;;;;;;;;;;;;;;;;;5032192;28;1052;-72
2022/06/07 14:32:32;;;;;;;;;;;;;;;;;;5032062;28;811;-72
2022/06/07 14:34:58;;;;;;;;;;;;;;;;;;5032014;28;1914;-72
2022/06/07 14:37:25;;;;;;;;;;;;;;;;;;5032437;28;1075;-72
2022/06/07 14:39:51;;;;;;;;;;;;;;;;;;5032470;28;1570;-72
2022/06/07 14:42:19;;;;;;;;;;;;;;;;;;5032128;28;1055;-72
2022/06/07 14:44:45;;;;;;;;;;;;;;;;;;5031698;28;1268;-72
2022/06/07 14:47:16;;;;;;;;;;;;;;;;;;5031687;28;802;-72
2022/06/07 14:49:42;;;;;;;;;;;;;;;;;;5031737;28;1112;-72
2022/06/07 14:52:11;;;;;;;;;;;;;;;;;;5047318;28;1149;-73
2022/06/07 14:54:37;;;;;;;;;;;;;;;;;;5031365;28;1981;-73
2022/06/07 14:57:06;;;;;;;;;;;;;;;;;;5031645;28;1048;-73
2022/06/07 14:59:33;;;;;;;;;;;;;;;;;;5046958;28;1175;-72
2022/06/07 15:02:00;;;;;;;;;;;;;;;;;;5031796;28;1075;-73
2022/06/07 15:04:28;;;;;;;;;;;;;;;;;;5032038;28;1439;-74
2022/06/07 15:06:54;;;;;;;;;;;;;;;;;;5031622;28;981;-74
2022/06/07 15:09:21;;;;;;;;;;;;;;;;;;5031540;28;1067;-74
2022/06/07 15:11:47;;;;;;;;;;;;;;;;;;5036130;28;1522;-74
2022/06/07 15:14:13;;;;;;;;;;;;;;;;;;5051518;28;1910;-74
2022/06/07 15:16:43;;;;;;;;;;;;;;;;;;5051066;28;889;-73
2022/06/07 15:19:25;;;;;;;;;;;;;;;;;;5051207;28;1072;-73
2022/06/07 15:21:51;;;;;;;;;;;;;;;;;;5051595;28;775;-73
2022/06/07 15:24:18;;;;;;;;;;;;;;;;;;5051123;28;1388;-73
2022/06/07 15:26:44;;;;;;;;;;;;;;;;;;5050739;28;945;-73
2022/06/07 15:29:10;;;;;;;;;;;;;;;;;;5051098;28;724;-73
2022/06/07 15:31:37;;;;;;;;;;;;;;;;;;5051012;28;835;-73
2022/06/07 15:34:07;;;;;;;;;;;;;;;;;;5050142;28;1914;-72
2022/06/07 15:36:33;;;;;;;;;;;;;;;;;;5050746;28;932;-73
2022/06/07 15:38:59;;;;;;;;;;;;;;;;;;5050996;28;1008;-73
2022/06/07 15:44:10;;;;;;;;;;;;;;;;;;5051609;28;1326;-73
2022/06/07 15:46:37;;;;;;;;;;;;;;;;;;5052321;28;1076;-74
2022/06/07 15:49:05;;;;;;;;;;;;;;;;;;5051283;28;985;-74
2022/06/07 15:51:33;;;;;;;;;;;;;;;;;;5050818;28;759;-74
2022/06/07 15:54:00;;;;;;;;;;;;;;;;;;5049295;28;1926;-74
2022/06/07 15:56:27;;;;;;;;;;;;;;;;;;5050751;28;1072;-74
2022/06/07 15:59:04;;;;;;;;;;;;;;;;;;5050635;28;1322;-74
2022/06/07 16:01:30;;;;;;;;;;;;;;;;;;5057800;28;2142;-75
2022/06/07 16:03:57;;;;;;;;;;;;;;;;;;5068137;28;1914;-75
2022/06/07 16:06:25;;;;;;;;;;;;;;;;;;5070518;28;972;-74
2022/06/07 16:08:53;;;;;;;;;;;;;;;;;;5071367;28;1063;-74
2022/06/07 16:11:20;;;;;;;;;;;;;;;;;;5054679;28;1560;-74
2022/06/07 16:13:47;;;;;;;;;;;;;;;;;;5049261;28;1398;-74
2022/06/07 16:16:14;;;;;;;;;;;;;;;;;;5050373;28;918;-74
2022/06/07 16:18:40;;;;;;;;;;;;;;;;;;5050448;28;945;-74
2022/06/07 16:21:07;;;;;;;;;;;;;;;;;;5050323;28;952;-74
2022/06/07 16:23:33;;;;;;;;;;;;;;;;;;5066620;22;3565;-75
2022/06/07 16:26:02;;;;;;;;;;;;;;;;;;5046274;28;1979;-76
2022/06/07 16:33:56;;;;;;;;;;;;;;;;;;5032209;28;1326;-75
2022/06/07 16:36:23;;;;;;;;;;;;;;;;;;5050093;28;799;-75
2022/06/07 16:38:50;;;;;;;;;;;;;;;;;;5050287;28;985;-74
2022/06/07 16:41:18;;;;;;;;;;;;;;;;;;5050408;28;1521;-76
2022/06/07 16:44:03;;;;;;;;;;;;;;;;;;5050145;28;1339;-75
2022/06/07 16:46:29;;;;;;;;;;;;;;;;;;5052834;28;941;-75
2022/06/07 16:48:56;;;;;;;;;;;;;;;;;;5054083;28;1076;-75
2022/06/07 16:51:24;;;;;;;;;;;;;;;;;;5054050;28;933;-75
2022/06/07 16:53:50;;;;;;;;;;;;;;;;;;5054666;28;1330;-74
2022/06/07 16:56:18;;;;;;;;;;;;;;;;;;5054964;28;1091;-74
2022/06/07 16:58:45;;;;;;;;;;;;;;;;;;5037434;28;1240;-74
2022/06/07 17:01:15;;;;;;;;;;;;;;;;;;5054920;28;1056;-75
2022/06/07 17:03:41;;;;;;;;;;;;;;;;;;5035908;28;1405;-75
2022/06/07 17:06:07;;;;;;;;;;;;;;;;;;5035519;28;1918;-75
2022/06/07 17:08:33;;;;;;;;;;;;;;;;;;5053666;28;1060;-75
2022/06/07 17:11:00;;;;;;;;;;;;;;;;;;5053656;28;997;-75
2022/06/07 17:13:28;;;;;;;;;;;;;;;;;;5035585;28;1328;-74
2022/06/07 17:15:54;;;;;;;;;;;;;;;;;;5053403;28;1143;-75
2022/06/07 17:18:21;;;;;;;;;;;;;;;;;;5048136;28;1519;-75
2022/06/07 17:20:47;;;;;;;;;;;;;;;;;;5033520;28;933;-76
2022/06/07 17:23:13;;;;;;;;;;;;;;;;;;5033562;28;894;-75
2022/06/07 17:25:40;;;;;;;;;;;;;;;;;;5033417;28;1984;-75
2022/06/07 17:28:06;;;;;;;;;;;;;;;;;;5033163;28;1000;-73
2022/06/07 17:30:34;;;;;;;;;;;;;;;;;;5033518;28;1056;-76
2022/06/07 17:33:00;;;;;;;;;;;;;;;;;;5015439;28;1262;-76
2022/06/07 17:35:26;;;;;;;;;;;;;;;;;;5033498;28;1356;-76
2022/06/07 17:37:53;;;;;;;;;;;;;;;;;;5032968;28;1074;-76
2022/06/07 17:40:21;;;;;;;;;;;;;;;;;;5033491;28;934;-76
2022/06/07 17:42:47;;;;;;;;;;;;;;;;;;5033050;28;1075;-76
2022/06/07 17:45:14;;;;;;;;;;;;;;;;;;5033209;28;1910;-75
2022/06/07 17:47:41;;;;;;;;;;;;;;;;;;5033396;28;1138;-76
2022/06/07 17:50:08;;;;;;;;;;;;;;;;;;5033129;28;942;-76
2022/06/07 17:52:34;;;;;;;;;;;;;;;;;;5032971;28;965;-77
2022/06/07 17:55:01;;;;;;;;;;;;;;;;;;5032840;28;1401;-76